sensor_id;sensor_type;location;lat;lon;timestamp;pressure;altitude;pressure_sealevel;temperature;humidity
79780;BME280;69258;52.050;10.334;2023-10-13T00:14:27;99394.78;;;20.11;59.97
79780;BME280;69258;52.050;10.334;2023-10-13T00:29:30;99386.75;;;20.11;60.29
79780;BME280;69258;52.050;10.334;2023-10-13T00:44:32;99388.84;;;20.09;59.96
79780;BME280;69258;52.050;10.334;2023-10-13T00:59:35;99371.97;;;20.08;60.04
79780;BME280;69258;52.050;10.334;2023-10-13T01:14:37;99355.09;;;20.08;60.05
79780;BME280;69258;52.050;10.334;2023-10-13T01:29:38;99359.59;;;20.07;59.61
79780;BME280;69258;52.050;10.334;2023-10-13T01:44:41;99363.31;;;20.06;59.74
79780;BME280;69258;52.050;10.334;2023-10-13T01:59:44;99343.75;;;20.06;59.47
79780;BME280;69258;52.050;10.334;2023-10-13T02:14:46;99341.31;;;20.04;59.41
79780;BME280;69258;52.050;10.334;2023-10-13T02:29:50;99322.59;;;20.04;59.71
79780;BME280;69258;52.050;10.334;2023-10-13T02:44:52;99305.72;;;20.04;59.79
79780;BME280;69258;52.050;10.334;2023-10-13T02:59:54;99297.88;;;20.02;60.03
79780;BME280;69258;52.050;10.334;2023-10-13T03:14:56;99289.88;;;20.02;59.40
79780;BME280;69258;52.050;10.334;2023-10-13T03:29:58;99260.69;;;20.01;59.66
79780;BME280;69258;52.050;10.334;2023-10-13T03:45:00;99254.50;;;20.00;59.66
79780;BME280;69258;52.050;10.334;2023-10-13T04:00:05;99223.63;;;19.98;59.87
79780;BME280;69258;52.050;10.334;2023-10-13T04:15:07;99201.22;;;19.99;59.33
79780;BME280;69258;52.050;10.334;2023-10-13T04:30:10;99196.09;;;19.97;59.50
79780;BME280;69258;52.050;10.334;2023-10-13T04:45:12;99180.84;;;19.98;60.05
79780;BME280;69258;52.050;10.334;2023-10-13T05:00:14;99165.84;;;19.97;60.06
79780;BME280;69258;52.050;10.334;2023-10-13T05:15:16;99157.00;;;19.96;59.54
79780;BME280;69258;52.050;10.334;2023-10-13T05:30:18;99147.13;;;19.97;59.78
79780;BME280;69258;52.050;10.334;2023-10-13T05:45:21;99127.78;;;19.95;59.47
79780;BME280;69258;52.050;10.334;2023-10-13T06:00:23;99109.91;;;19.95;59.65
79780;BME280;69258;52.050;10.334;2023-10-13T06:15:26;99112.56;;;19.95;59.65
79780;BME280;69258;52.050;10.334;2023-10-13T06:30:29;99100.22;;;19.94;59.62
79780;BME280;69258;52.050;10.334;2023-10-13T06:45:30;99087.91;;;19.93;59.61
79780;BME280;69258;52.050;10.334;2023-10-13T07:00:33;99077.22;;;19.93;59.66
79780;BME280;69258;52.050;10.334;2023-10-13T07:15:37;99052.94;;;19.95;59.63
79780;BME280;69258;52.050;10.334;2023-10-13T07:30:39;99039.56;;;19.95;59.74
79780;BME280;69258;52.050;10.334;2023-10-13T07:45:42;99032.34;;;19.95;59.54
79780;BME280;69258;52.050;10.334;2023-10-13T08:00:46;99010.97;;;19.95;59.67
79780;BME280;69258;52.050;10.334;2023-10-13T08:15:49;99001.09;;;19.96;59.62
79780;BME280;69258;52.050;10.334;2023-10-13T08:30:50;99009.13;;;19.96;59.59
79780;BME280;69258;52.050;10.334;2023-10-13T08:45:54;98947.63;;;19.96;59.98
79780;BME280;69258;52.050;10.334;2023-10-13T09:01:00;98936.09;;;19.95;59.63
79780;BME280;69258;52.050;10.334;2023-10-13T09:16:09;98926.81;;;19.98;59.50
79780;BME280;69258;52.050;10.334;2023-10-13T09:31:22;98928.84;;;20.02;59.58
79780;BME280;69258;52.050;10.334;2023-10-13T09:46:26;98931.31;;;20.04;59.54
79780;BME280;69258;52.050;10.334;2023-10-13T10:01:28;98914.81;;;20.07;59.26
79780;BME280;69258;52.050;10.334;2023-10-13T10:17:11;98892.75;;;20.11;59.61
79780;BME280;69258;52.050;10.334;2023-10-13T10:32:14;98854.66;;;20.16;59.64
79780;BME280;69258;52.050;10.334;2023-10-13T10:47:16;98803.97;;;20.21;59.50
79780;BME280;69258;52.050;10.334;2023-10-13T11:02:18;98791.38;;;20.28;58.84
79780;BME280;69258;52.050;10.334;2023-10-13T11:17:21;98782.84;;;20.38;58.95
79780;BME280;69258;52.050;10.334;2023-10-13T11:32:24;98778.41;;;20.43;59.16
79780;BME280;69258;52.050;10.334;2023-10-13T11:47:26;98772.66;;;20.46;58.99
79780;BME280;69258;52.050;10.334;2023-10-13T12:02:29;98757.53;;;20.52;59.02
79780;BME280;69258;52.050;10.334;2023-10-13T12:17:32;98728.69;;;20.54;59.03
79780;BME280;69258;52.050;10.334;2023-10-13T12:32:35;98707.66;;;20.57;59.21
79780;BME280;69258;52.050;10.334;2023-10-13T12:47:37;98684.94;;;20.60;58.86
79780;BME280;69258;52.050;10.334;2023-10-13T13:02:40;98674.59;;;20.63;59.50
79780;BME280;69258;52.050;10.334;2023-10-13T13:17:43;98660.19;;;20.64;59.21
79780;BME280;69258;52.050;10.334;2023-10-13T13:32:46;98633.16;;;20.66;59.30
79780;BME280;69258;52.050;10.334;2023-10-13T13:47:51;98612.34;;;20.68;59.22
79780;BME280;69258;52.050;10.334;2023-10-13T14:02:54;98608.63;;;20.69;59.49
79780;BME280;69258;52.050;10.334;2023-10-13T14:17:56;98572.78;;;20.70;59.58
79780;BME280;69258;52.050;10.334;2023-10-13T14:32:58;98595.00;;;20.71;59.42
79780;BME280;69258;52.050;10.334;2023-10-13T14:48:01;98577.09;;;20.71;59.20
79780;BME280;69258;52.050;10.334;2023-10-13T15:03:04;98568.03;;;20.72;59.13
79780;BME280;69258;52.050;10.334;2023-10-13T15:18:07;98557.53;;;20.71;59.37
79780;BME280;69258;52.050;10.334;2023-10-13T15:33:12;98546.81;;;20.71;59.87
79780;BME280;69258;52.050;10.334;2023-10-13T15:48:14;98529.16;;;20.70;59.34
79780;BME280;69258;52.050;10.334;2023-10-13T16:03:20;98525.66;;;20.69;59.78
79780;BME280;69258;52.050;10.334;2023-10-13T16:18:23;98528.56;;;20.67;59.17
79780;BME280;69258;52.050;10.334;2023-10-13T16:33:26;98532.28;;;20.66;59.52
79780;BME280;69258;52.050;10.334;2023-10-13T16:48:28;98531.69;;;20.64;59.60
79780;BME280;69258;52.050;10.334;2023-10-13T17:03:30;98531.94;;;20.63;59.26
79780;BME280;69258;52.050;10.334;2023-10-13T17:18:33;98536.72;;;20.61;59.82
79780;BME280;69258;52.050;10.334;2023-10-13T17:33:36;98521.47;;;20.61;59.61
79780;BME280;69258;52.050;10.334;2023-10-13T17:48:39;98513.66;;;20.60;59.38
79780;BME280;69258;52.050;10.334;2023-10-13T18:03:46;98518.44;;;20.58;59.84
79780;BME280;69258;52.050;10.334;2023-10-13T18:18:49;98500.50;;;20.58;59.67
79780;BME280;69258;52.050;10.334;2023-10-13T18:33:52;98492.72;;;20.57;59.78
79780;BME280;69258;52.050;10.334;2023-10-13T18:48:54;98469.47;;;20.57;60.12
79780;BME280;69258;52.050;10.334;2023-10-13T19:03:59;98455.00;;;20.58;60.05
79780;BME280;69258;52.050;10.334;2023-10-13T19:19:02;98439.41;;;20.55;59.92
79780;BME280;69258;52.050;10.334;2023-10-13T19:34:05;98435.69;;;20.56;60.04
79780;BME280;69258;52.050;10.334;2023-10-13T19:49:08;98416.41;;;20.54;60.07
79780;BME280;69258;52.050;10.334;2023-10-13T20:04:12;98404.88;;;20.54;59.67
79780;BME280;69258;52.050;10.334;2023-10-13T20:19:14;98411.84;;;20.55;60.06
79780;BME280;69258;52.050;10.334;2023-10-13T20:34:17;98392.53;;;20.53;59.83
79780;BME280;69258;52.050;10.334;2023-10-13T20:49:20;98408.59;;;20.53;59.82
79780;BME280;69258;52.050;10.334;2023-10-13T21:04:23;98355.31;;;20.51;60.07
79780;BME280;69258;52.050;10.334;2023-10-13T21:19:26;98316.25;;;20.50;59.51
79780;BME280;69258;52.050;10.334;2023-10-13T21:34:28;98279.81;;;20.49;59.76
79780;BME280;69258;52.050;10.334;2023-10-13T21:49:31;98254.09;;;20.48;59.42
79780;BME280;69258;52.050;10.334;2023-10-13T22:04:33;98275.50;;;20.48;59.57
79780;BME280;69258;52.050;10.334;2023-10-13T22:19:36;98256.22;;;20.46;60.13
79780;BME280;69258;52.050;10.334;2023-10-13T22:34:39;98231.06;;;20.47;59.62
79780;BME280;69258;52.050;10.334;2023-10-13T22:49:41;98224.94;;;20.47;60.00
79780;BME280;69258;52.050;10.334;2023-10-13T23:04:44;98213.41;;;20.46;59.72
79780;BME280;69258;52.050;10.334;2023-10-13T23:19:46;98202.72;;;20.46;59.83
79780;BME280;69258;52.050;10.334;2023-10-13T23:34:47;98179.66;;;20.45;59.72
79780;BME280;69258;52.050;10.334;2023-10-13T23:49:50;98153.16;;;20.44;59.26
